createdAt,value
2022-10-26T00:01:59.116Z,100622.56
2022-10-26T00:06:07.955Z,100628.81
2022-10-26T00:22:09.745Z,100632.78
2022-10-26T00:26:12.021Z,100633.66
2022-10-26T00:30:13.523Z,100636.59
2022-10-26T00:34:15.168Z,100633.97
2022-10-26T00:38:16.618Z,100633.78
2022-10-26T00:42:20.769Z,100639.94
2022-10-26T00:46:35.948Z,100634.56
2022-10-26T00:50:43.063Z,100638.88
2022-10-26T00:54:45.306Z,100631.25
2022-10-26T00:58:47.042Z,100641.44
2022-10-26T01:02:51.353Z,100643.16
2022-10-26T01:06:53.335Z,100635.06
2022-10-26T01:10:57.171Z,100635.38
2022-10-26T01:14:59.136Z,100635.50
2022-10-26T01:19:32.326Z,100630.06
2022-10-26T01:23:47.534Z,100638.03
2022-10-26T01:27:52.376Z,100637.78
2022-10-26T01:31:59.947Z,100630.38
2022-10-26T01:36:12.923Z,100635.66
2022-10-26T01:40:25.562Z,100626.59
2022-10-26T01:44:42.696Z,100629.66
2022-10-26T01:48:46.020Z,100630.81
2022-10-26T01:52:51.041Z,100630.47
2022-10-26T01:56:55.537Z,100625.09
2022-10-26T02:01:23.159Z,100629.09
2022-10-26T02:05:52.993Z,100621.63
2022-10-26T02:10:08.542Z,100633.22
2022-10-26T02:14:20.271Z,100629.84
2022-10-26T02:18:53.087Z,100629.94
2022-10-26T02:22:56.352Z,100626.50
2022-10-26T02:27:01.685Z,100617.63
2022-10-26T02:31:05.860Z,100611.41
2022-10-26T02:35:07.851Z,100610.69
2022-10-26T02:39:12.728Z,100614.06
2022-10-26T02:43:16.476Z,100613.84
2022-10-26T02:47:19.736Z,100611.41
2022-10-26T02:51:35.299Z,100610.75
2022-10-26T02:55:42.113Z,100618.06
2022-10-26T02:59:47.615Z,100605.91
2022-10-26T03:03:49.240Z,100608.63
2022-10-26T03:07:50.858Z,100605.31
2022-10-26T03:11:52.634Z,100610.81
2022-10-26T03:15:57.652Z,100615.63
2022-10-26T03:19:59.200Z,100618.38
2022-10-26T03:24:00.936Z,100610.66
2022-10-26T03:28:04.942Z,100618.66
2022-10-26T03:32:07.071Z,100608.25
2022-10-26T03:36:09.444Z,100609.38
2022-10-26T03:40:11.399Z,100614.72
2022-10-26T03:44:12.939Z,100613.81
2022-10-26T03:48:14.627Z,100616.50
2022-10-26T03:52:16.306Z,100614.16
2022-10-26T03:56:17.873Z,100618.06
2022-10-26T04:00:19.419Z,100621.59
2022-10-26T04:04:21.039Z,100621.53
2022-10-26T04:08:22.665Z,100612.63
2022-10-26T04:12:24.333Z,100619.81
2022-10-26T04:16:30.968Z,100614.63
2022-10-26T04:20:36.726Z,100619.91
2022-10-26T04:24:38.787Z,100614.34
2022-10-26T04:28:40.445Z,100615.94
2022-10-26T04:32:42.004Z,100607.34
2022-10-26T04:36:43.934Z,100606.63
2022-10-26T04:40:45.730Z,100614.72
2022-10-26T04:44:47.312Z,100607.78
2022-10-26T04:48:49.115Z,100601.69
2022-10-26T04:52:51.757Z,100601.69
2022-10-26T04:56:53.500Z,100599.19
2022-10-26T05:00:55.545Z,100602.75
2022-10-26T05:04:57.398Z,100602.75
2022-10-26T05:08:59.021Z,100598.47
2022-10-26T05:13:02.085Z,100597.88
2022-10-26T05:17:03.747Z,100595.19
2022-10-26T05:21:05.544Z,100597.03
2022-10-26T05:25:15.676Z,100588.19
2022-10-26T05:29:17.441Z,100587.31
2022-10-26T05:33:19.253Z,100596.81
2022-10-26T05:37:20.952Z,100593.25
2022-10-26T05:41:22.477Z,100603.88
2022-10-26T05:45:24.110Z,100602.25
2022-10-26T05:49:25.609Z,100610.84
2022-10-26T05:53:28.101Z,100608.03
2022-10-26T05:57:29.883Z,100612.63
2022-10-26T06:01:44.298Z,100610.41
2022-10-26T06:05:58.904Z,100607.88
2022-10-26T06:10:02.029Z,100610.72
2022-10-26T06:14:03.959Z,100624.03
2022-10-26T06:18:22.020Z,100623.13
2022-10-26T06:22:48.565Z,100637.81
2022-10-26T06:27:28.452Z,100651.19
2022-10-26T06:31:32.313Z,100655.47
2022-10-26T06:35:54.704Z,100650.16
2022-10-26T06:39:59.870Z,100644.47
2022-10-26T06:44:02.616Z,100658.91
2022-10-26T06:48:27.924Z,100655.53
2022-10-26T06:53:03.987Z,100659.16
2022-10-26T06:57:43.588Z,100642.00
2022-10-26T07:02:12.716Z,100644.41
2022-10-26T07:06:14.599Z,100648.03
2022-10-26T07:10:16.405Z,100655.34
2022-10-26T07:14:18.072Z,100666.16
2022-10-26T07:18:19.987Z,100664.56
2022-10-26T07:22:22.875Z,100661.16
2022-10-26T07:26:26.647Z,100659.03
2022-10-26T07:30:30.371Z,100669.00
2022-10-26T07:34:32.040Z,100664.47
2022-10-26T07:38:39.581Z,100667.16
2022-10-26T07:42:43.107Z,100663.28
2022-10-26T07:46:47.034Z,100668.78
2022-10-26T07:50:49.172Z,100665.78
2022-10-26T07:54:50.902Z,100663.91
2022-10-26T07:59:43.135Z,100661.28
2022-10-26T08:04:51.064Z,100671.53
2022-10-26T08:09:43.193Z,100677.03
2022-10-26T08:19:44.322Z,100665.88
2022-10-26T08:23:46.055Z,100666.16
2022-10-26T08:27:47.633Z,100662.31
2022-10-26T08:31:49.260Z,100670.06
2022-10-26T08:36:02.041Z,100673.16
2022-10-26T08:40:04.669Z,100673.09
2022-10-26T08:44:25.989Z,100665.47
2022-10-26T08:48:33.962Z,100665.13
2022-10-26T08:53:02.129Z,100660.31
2022-10-26T08:57:20.996Z,100658.69
2022-10-26T09:01:23.589Z,100659.50
2022-10-26T09:05:37.149Z,100663.56
2022-10-26T09:09:48.499Z,100658.56
2022-10-26T09:14:19.398Z,100659.47
2022-10-26T09:23:26.203Z,100669.44
2022-10-26T09:27:32.415Z,100667.97
2022-10-26T09:31:43.205Z,100671.28
2022-10-26T09:36:13.345Z,100654.97
2022-10-26T09:40:26.635Z,100655.94
2022-10-26T09:44:37.449Z,100652.56
2022-10-26T09:48:56.716Z,100657.38
2022-10-26T09:52:58.443Z,100657.03
2022-10-26T09:57:03.814Z,100661.56
2022-10-26T10:01:05.803Z,100657.16
2022-10-26T10:05:39.216Z,100650.41
2022-10-26T10:10:14.857Z,100648.31
2022-10-26T10:14:17.915Z,100645.56
2022-10-26T10:18:22.976Z,100648.09
2022-10-26T10:22:27.570Z,100651.03
2022-10-26T10:26:29.255Z,100652.50
2022-10-26T10:30:33.625Z,100641.50
2022-10-26T10:34:36.273Z,100645.41
2022-10-26T10:38:42.810Z,100636.66
2022-10-26T10:42:46.472Z,100636.59
2022-10-26T10:46:48.360Z,100646.00
2022-10-26T10:51:03.333Z,100635.34
2022-10-26T10:55:18.092Z,100627.34
2022-10-26T10:59:55.298Z,100621.78
2022-10-26T11:04:18.467Z,100616.41
2022-10-26T11:08:57.296Z,100620.59
2022-10-26T11:13:03.064Z,100620.41
2022-10-26T11:17:19.491Z,100616.31
2022-10-26T11:21:34.814Z,100614.59
2022-10-26T11:31:48.123Z,100601.56
2022-10-26T11:35:59.437Z,100613.13
2022-10-26T11:40:26.686Z,100605.31
2022-10-26T11:44:38.672Z,100615.41
2022-10-26T11:48:49.043Z,100601.03
2022-10-26T11:53:28.494Z,100608.00
2022-10-26T11:58:20.224Z,100612.38
2022-10-26T12:08:33.494Z,100615.84
2022-10-26T12:12:58.098Z,100604.53
2022-10-26T12:17:11.246Z,100611.09
2022-10-26T12:21:15.042Z,100609.47
2022-10-26T12:25:22.346Z,100611.81
2022-10-26T12:29:36.966Z,100610.13
2022-10-26T12:33:50.717Z,100602.16
2022-10-26T12:37:52.758Z,100610.47
2022-10-26T12:42:09.888Z,100606.56
2022-10-26T12:46:14.667Z,100602.25
2022-10-26T12:50:24.452Z,100609.84
2022-10-26T12:54:45.918Z,100603.84
2022-10-26T12:59:05.227Z,100598.69
2022-10-26T13:03:25.339Z,100603.56
2022-10-26T13:07:33.890Z,100599.97
2022-10-26T13:11:46.556Z,100606.38
2022-10-26T13:15:56.457Z,100606.50
2022-10-26T13:20:04.737Z,100611.25
2022-10-26T13:24:13.981Z,100606.84
2022-10-26T13:28:38.105Z,100602.31
2022-10-26T13:32:41.989Z,100603.06
2022-10-26T13:37:23.375Z,100610.09
2022-10-26T13:41:38.225Z,100609.75
2022-10-26T13:45:58.890Z,100607.81
2022-10-26T13:50:06.092Z,100606.41
2022-10-26T13:54:19.949Z,100617.97
2022-10-26T13:58:37.554Z,100627.03
2022-10-26T14:02:43.546Z,100625.75
2022-10-26T14:06:51.357Z,100636.19
2022-10-26T14:10:57.132Z,100636.91
2022-10-26T14:15:06.397Z,100634.84
2022-10-26T14:19:16.199Z,100638.94
2022-10-26T14:23:29.641Z,100631.59
2022-10-26T14:27:34.175Z,100631.56
2022-10-26T14:31:38.460Z,100630.13
2022-10-26T14:35:42.026Z,100628.91
2022-10-26T14:39:47.737Z,100631.75
2022-10-26T14:43:49.544Z,100645.66
2022-10-26T14:47:51.345Z,100646.34
2022-10-26T14:51:58.855Z,100658.81
2022-10-26T14:56:00.685Z,100658.44
2022-10-26T15:00:16.449Z,100657.47
2022-10-26T15:04:37.461Z,100667.72
2022-10-26T15:08:52.643Z,100656.75
2022-10-26T15:12:58.138Z,100659.09
2022-10-26T15:17:00.527Z,100662.00
2022-10-26T15:21:02.659Z,100658.41
2022-10-26T15:25:06.532Z,100669.69
2022-10-26T15:29:53.963Z,100668.69
2022-10-26T15:33:55.417Z,100674.69
2022-10-26T15:37:58.953Z,100674.53
2022-10-26T15:42:00.467Z,100677.75
2022-10-26T15:46:02.129Z,100673.19
2022-10-26T15:50:04.053Z,100677.84
2022-10-26T15:54:06.027Z,100680.22
2022-10-26T15:58:11.220Z,100694.38
2022-10-26T16:02:14.676Z,100690.41
2022-10-26T16:06:22.250Z,100698.50
2022-10-26T16:10:25.120Z,100710.47
2022-10-26T16:14:30.005Z,100711.25
2022-10-26T16:18:34.760Z,100705.63
2022-10-26T16:22:38.432Z,100716.13
2022-10-26T16:26:40.505Z,100712.22
2022-10-26T16:30:42.497Z,100718.91
2022-10-26T16:34:44.768Z,100721.69
2022-10-26T16:38:47.274Z,100719.53
2022-10-26T16:42:49.273Z,100727.56
2022-10-26T16:46:51.040Z,100724.50
2022-10-26T16:50:52.695Z,100738.22
2022-10-26T16:54:55.048Z,100739.31
2022-10-26T16:58:57.274Z,100740.22
2022-10-26T17:03:00.784Z,100747.31
2022-10-26T17:07:02.274Z,100740.69
2022-10-26T17:11:09.258Z,100745.22
2022-10-26T17:15:39.380Z,100756.41
2022-10-26T17:19:40.934Z,100756.41
2022-10-26T17:24:32.308Z,100768.25
2022-10-26T17:28:59.661Z,100768.59
2022-10-26T17:33:37.106Z,100782.88
2022-10-26T17:37:40.801Z,100791.72
2022-10-26T17:41:42.496Z,100809.00
2022-10-26T17:45:44.567Z,100815.00
2022-10-26T17:49:46.159Z,100819.25
2022-10-26T17:54:38.193Z,100818.84
2022-10-26T17:58:39.898Z,100828.50
2022-10-26T18:02:41.524Z,100826.94
2022-10-26T18:07:33.321Z,100828.84
2022-10-26T18:11:34.843Z,100840.50
2022-10-26T18:15:36.759Z,100854.13
2022-10-26T18:20:03.700Z,100850.41
2022-10-26T18:24:07.256Z,100861.72
2022-10-26T18:28:58.996Z,100868.06
2022-10-26T18:33:00.701Z,100861.88
2022-10-26T18:37:02.297Z,100866.69
2022-10-26T18:41:04.408Z,100874.38
2022-10-26T18:45:06.445Z,100879.09
2022-10-26T18:49:09.370Z,100882.19
2022-10-26T18:53:15.396Z,100881.22
2022-10-26T18:57:42.373Z,100887.44
2022-10-26T19:01:45.744Z,100891.47
2022-10-26T19:05:47.471Z,100907.06
2022-10-26T19:09:53.606Z,100912.28
2022-10-26T19:13:55.948Z,100902.97
2022-10-26T19:18:03.288Z,100918.63
2022-10-26T19:22:33.459Z,100924.59
2022-10-26T19:26:39.892Z,100926.59
2022-10-26T19:30:50.223Z,100936.94
2022-10-26T19:34:52.221Z,100943.72
2022-10-26T19:38:54.915Z,100936.78
2022-10-26T19:43:47.147Z,100957.44
2022-10-26T19:48:39.421Z,100968.09
2022-10-26T19:52:43.455Z,100957.81
2022-10-26T19:56:45.736Z,100965.25
2022-10-26T20:00:48.203Z,100961.25
2022-10-26T20:05:23.922Z,100967.97
2022-10-26T20:10:16.372Z,100969.00
2022-10-26T20:14:18.813Z,100978.22
2022-10-26T20:18:20.876Z,100990.81
2022-10-26T20:22:22.522Z,100994.72
2022-10-26T20:26:27.489Z,100994.72
2022-10-26T20:30:31.939Z,101001.28
2022-10-26T20:34:33.416Z,101001.84
2022-10-26T20:38:35.600Z,101007.56
2022-10-26T20:42:37.386Z,101009.63
2022-10-26T20:46:39.677Z,101002.44
2022-10-26T20:50:44.387Z,101005.09
2022-10-26T20:54:52.877Z,101011.72
2022-10-26T20:58:56.961Z,101016.19
2022-10-26T21:02:58.589Z,101017.41
2022-10-26T21:07:00.137Z,101025.19
2022-10-26T21:11:01.906Z,101025.38
2022-10-26T21:15:03.796Z,101031.28
2022-10-26T21:19:07.227Z,101032.25
2022-10-26T21:23:08.803Z,101040.50
2022-10-26T21:27:10.435Z,101040.19
2022-10-26T21:31:14.172Z,101046.63
2022-10-26T21:35:15.750Z,101050.00
2022-10-26T21:39:17.340Z,101049.50
2022-10-26T21:43:18.984Z,101051.56
2022-10-26T21:47:20.528Z,101052.59
2022-10-26T21:51:22.259Z,101051.91
2022-10-26T21:55:23.823Z,101055.44
2022-10-26T21:59:25.452Z,101062.25
2022-10-26T22:03:26.947Z,101071.25
2022-10-26T22:07:28.597Z,101069.31
2022-10-26T22:11:31.415Z,101072.22
2022-10-26T22:15:32.901Z,101072.81
2022-10-26T22:19:34.876Z,101077.47
2022-10-26T22:23:38.570Z,101072.41
2022-10-26T22:27:40.084Z,101068.09
2022-10-26T22:31:41.647Z,101070.00
2022-10-26T22:35:43.694Z,101066.91
2022-10-26T22:39:45.208Z,101066.81
2022-10-26T22:43:46.822Z,101063.63
2022-10-26T22:47:48.481Z,101064.16
2022-10-26T22:51:50.009Z,101067.66
2022-10-26T22:55:51.518Z,101076.66
2022-10-26T22:59:52.997Z,101077.53
2022-10-26T23:03:57.788Z,101086.38
2022-10-26T23:07:59.244Z,101093.56
2022-10-26T23:12:00.795Z,101096.25
2022-10-26T23:16:07.681Z,101092.44
2022-10-26T23:26:34.346Z,101108.66
2022-10-26T23:30:37.027Z,101121.56
2022-10-26T23:34:38.669Z,101119.41
2022-10-26T23:38:40.274Z,101112.66
2022-10-26T23:42:41.967Z,101124.09
2022-10-26T23:46:43.596Z,101119.84
2022-10-26T23:50:46.980Z,101117.25
2022-10-26T23:58:51.388Z,101127.06
